createdAt,value
2019-01-18T00:00:07.137Z,23.22
2019-01-18T00:02:33.788Z,23.18
2019-01-18T00:05:00.431Z,23.15
2019-01-18T00:07:27.081Z,23.21
2019-01-18T00:09:53.728Z,23.14
2019-01-18T00:12:20.375Z,23.14
2019-01-18T00:14:47.033Z,23.12
2019-01-18T00:17:13.721Z,23.15
2019-01-18T00:19:40.410Z,23.12
2019-01-18T00:22:07.060Z,23.11
2019-01-18T00:24:33.840Z,23.07
2019-01-18T00:27:00.482Z,23.04
2019-01-18T00:29:29.699Z,22.90
2019-01-18T00:31:55.677Z,22.89
2019-01-18T00:34:22.332Z,23.01
2019-01-18T00:36:49.071Z,23.00
2019-01-18T00:39:15.726Z,23.05
2019-01-18T00:41:42.374Z,23.12
2019-01-18T00:44:09.109Z,23.14
2019-01-18T00:46:35.752Z,23.15
2019-01-18T00:49:02.404Z,23.15
2019-01-18T00:51:29.053Z,23.20
2019-01-18T00:53:55.705Z,22.89
2019-01-18T00:56:22.396Z,22.65
2019-01-18T00:58:49.036Z,22.50
2019-01-18T01:01:15.685Z,22.54
2019-01-18T01:03:42.343Z,22.70
2019-01-18T01:06:08.994Z,22.75
2019-01-18T01:08:35.640Z,22.85
2019-01-18T01:11:02.290Z,22.93
2019-01-18T01:13:28.926Z,22.93
2019-01-18T01:15:55.577Z,22.98
2019-01-18T01:18:22.241Z,23.02
2019-01-18T01:20:48.883Z,22.98
2019-01-18T01:23:15.530Z,22.99
2019-01-18T01:25:42.177Z,22.97
2019-01-18T01:28:08.821Z,22.96
2019-01-18T01:30:35.533Z,22.99
2019-01-18T01:33:02.176Z,22.98
2019-01-18T01:35:28.835Z,22.97
2019-01-18T01:37:55.486Z,23.00
2019-01-18T01:40:22.177Z,22.95
2019-01-18T01:42:48.866Z,22.80
2019-01-18T01:45:15.504Z,22.77
2019-01-18T01:47:42.142Z,22.84
2019-01-18T01:50:08.797Z,22.85
2019-01-18T01:52:35.485Z,22.89
2019-01-18T01:55:02.134Z,22.93
2019-01-18T01:57:28.777Z,22.95
2019-01-18T01:59:55.481Z,22.96
2019-01-18T02:02:22.127Z,23.01
2019-01-18T02:04:48.779Z,23.00
2019-01-18T02:07:15.430Z,23.01
2019-01-18T02:09:42.119Z,23.00
2019-01-18T02:12:08.762Z,22.98
2019-01-18T02:14:35.414Z,22.99
2019-01-18T02:17:02.106Z,22.94
2019-01-18T02:19:28.806Z,22.97
2019-01-18T02:21:55.447Z,22.93
2019-01-18T02:24:22.129Z,22.94
2019-01-18T02:26:48.791Z,22.88
2019-01-18T02:29:15.441Z,22.77
2019-01-18T02:31:42.091Z,22.76
2019-01-18T02:34:08.789Z,22.82
2019-01-18T02:36:35.438Z,22.84
2019-01-18T02:39:02.082Z,22.85
2019-01-18T02:41:28.774Z,22.90
2019-01-18T02:43:55.410Z,22.91
2019-01-18T02:46:22.056Z,22.94
2019-01-18T02:48:48.718Z,22.98
2019-01-18T02:51:15.367Z,22.97
2019-01-18T02:53:42.018Z,23.03
2019-01-18T02:56:11.742Z,23.04
2019-01-18T02:58:38.388Z,23.00
2019-01-18T03:01:05.028Z,23.02
2019-01-18T03:03:31.724Z,22.98
2019-01-18T03:05:58.370Z,22.97
2019-01-18T03:08:25.057Z,22.95
2019-01-18T03:10:51.695Z,22.95
2019-01-18T03:13:18.405Z,22.93
2019-01-18T03:15:45.085Z,22.88
2019-01-18T03:18:11.731Z,22.89
2019-01-18T03:20:38.436Z,22.89
2019-01-18T03:23:05.064Z,22.90
2019-01-18T03:25:31.712Z,22.88
2019-01-18T03:27:58.364Z,22.88
2019-01-18T03:30:25.006Z,22.88
2019-01-18T03:32:51.656Z,22.88
2019-01-18T03:35:18.293Z,22.86
2019-01-18T03:37:44.955Z,22.88
2019-01-18T03:40:11.610Z,22.85
2019-01-18T03:42:38.303Z,22.83
2019-01-18T03:45:04.966Z,22.86
2019-01-18T03:47:31.598Z,22.81
2019-01-18T03:49:58.304Z,22.85
2019-01-18T03:52:24.942Z,22.84
2019-01-18T03:54:51.584Z,22.87
2019-01-18T03:57:18.238Z,22.85
2019-01-18T03:59:44.879Z,22.84
2019-01-18T04:02:11.579Z,22.80
2019-01-18T04:04:38.216Z,22.79
2019-01-18T04:07:05.026Z,22.85
2019-01-18T04:09:31.673Z,22.56
2019-01-18T04:11:58.320Z,21.49
2019-01-18T04:14:25.983Z,21.15
2019-01-18T04:16:51.647Z,21.00
2019-01-18T04:19:18.298Z,21.24
2019-01-18T04:21:45.001Z,21.36
2019-01-18T04:24:11.628Z,21.31
2019-01-18T04:26:38.264Z,21.36
2019-01-18T04:29:04.916Z,20.99
2019-01-18T04:31:31.567Z,20.95
2019-01-18T04:33:58.255Z,21.61
2019-01-18T04:36:24.928Z,21.96
2019-01-18T04:38:51.613Z,22.15
2019-01-18T04:41:18.252Z,22.27
2019-01-18T04:43:44.889Z,22.38
2019-01-18T04:46:11.546Z,22.41
2019-01-18T04:48:38.242Z,22.51
2019-01-18T04:51:04.888Z,22.59
2019-01-18T04:53:31.522Z,22.54
2019-01-18T04:55:58.178Z,22.61
2019-01-18T04:58:24.822Z,22.72
2019-01-18T05:00:51.533Z,22.73
2019-01-18T05:03:18.167Z,22.77
2019-01-18T05:05:44.802Z,22.70
2019-01-18T05:08:11.471Z,22.77
2019-01-18T05:10:38.112Z,22.76
2019-01-18T05:13:04.802Z,22.81
2019-01-18T05:15:31.448Z,22.75
2019-01-18T05:17:58.105Z,22.81
2019-01-18T05:20:24.755Z,23.03
2019-01-18T05:22:51.469Z,22.83
2019-01-18T05:25:18.103Z,22.75
2019-01-18T05:27:44.796Z,22.86
2019-01-18T05:30:11.514Z,22.72
2019-01-18T05:32:38.205Z,22.83
2019-01-18T05:35:04.837Z,22.76
2019-01-18T05:37:31.501Z,22.69
2019-01-18T05:39:58.196Z,22.67
2019-01-18T05:42:24.841Z,22.69
2019-01-18T05:44:51.530Z,22.74
2019-01-18T05:47:18.170Z,22.68
2019-01-18T05:49:44.820Z,22.68
2019-01-18T05:52:11.469Z,22.85
2019-01-18T05:54:38.108Z,22.82
2019-01-18T05:57:04.745Z,22.76
2019-01-18T05:59:31.401Z,22.86
2019-01-18T06:01:58.106Z,22.89
2019-01-18T06:04:24.753Z,22.88
2019-01-18T06:06:51.402Z,22.86
2019-01-18T06:09:18.045Z,22.80
2019-01-18T06:11:44.771Z,22.81
2019-01-18T06:14:11.405Z,22.90
2019-01-18T06:16:38.060Z,23.00
2019-01-18T06:19:04.704Z,23.04
2019-01-18T06:21:31.397Z,23.24
2019-01-18T06:23:58.038Z,23.19
2019-01-18T06:26:24.791Z,23.28
2019-01-18T06:28:51.454Z,23.45
2019-01-18T06:31:18.102Z,23.43
2019-01-18T06:33:45.459Z,23.56
2019-01-18T06:36:12.097Z,23.43
2019-01-18T06:38:38.749Z,23.50
2019-01-18T06:41:08.814Z,23.57
2019-01-18T06:43:35.513Z,23.62
2019-01-18T06:46:02.169Z,23.74
2019-01-18T06:48:28.810Z,23.96
2019-01-18T06:50:55.465Z,23.91
2019-01-18T06:53:22.115Z,23.93
2019-01-18T06:55:48.763Z,23.98
2019-01-18T06:58:15.413Z,24.03
2019-01-18T07:00:42.133Z,24.24
2019-01-18T07:03:08.827Z,24.26
2019-01-18T07:05:35.518Z,24.33
2019-01-18T07:08:02.505Z,24.20
2019-01-18T07:10:29.139Z,24.32
2019-01-18T07:12:55.788Z,24.25
2019-01-18T07:15:22.451Z,24.42
2019-01-18T07:17:49.171Z,24.50
2019-01-18T07:20:15.852Z,24.32
2019-01-18T07:22:42.530Z,24.16
2019-01-18T07:25:09.179Z,24.14
2019-01-18T07:27:36.885Z,24.44
2019-01-18T07:30:03.532Z,24.72
2019-01-18T07:32:30.201Z,24.81
2019-01-18T07:34:56.859Z,24.80
2019-01-18T07:37:23.526Z,24.80
2019-01-18T07:39:50.234Z,24.78
2019-01-18T07:42:16.872Z,24.87
2019-01-18T07:44:43.561Z,24.93
2019-01-18T07:47:10.269Z,24.94
2019-01-18T07:49:36.918Z,24.91
2019-01-18T07:52:03.610Z,25.03
2019-01-18T07:54:30.251Z,24.98
2019-01-18T07:56:56.978Z,25.02
2019-01-18T07:59:23.675Z,25.12
2019-01-18T08:01:50.327Z,25.12
2019-01-18T08:04:16.982Z,25.04
2019-01-18T08:06:43.796Z,25.13
2019-01-18T08:09:10.501Z,25.11
2019-01-18T08:11:37.147Z,25.20
2019-01-18T08:14:05.911Z,25.28
2019-01-18T08:16:32.572Z,25.25
2019-01-18T08:18:59.263Z,25.13
2019-01-18T08:21:25.908Z,25.42
2019-01-18T08:23:52.605Z,25.24
2019-01-18T08:26:19.250Z,25.20
2019-01-18T08:28:45.886Z,25.05
2019-01-18T08:31:12.543Z,25.03
2019-01-18T08:33:39.190Z,24.88
2019-01-18T08:36:05.837Z,25.00
2019-01-18T08:38:32.473Z,24.97
2019-01-18T08:40:59.141Z,24.93
2019-01-18T08:43:25.810Z,24.96
2019-01-18T08:45:53.026Z,24.91
2019-01-18T08:48:19.664Z,24.98
2019-01-18T08:50:46.379Z,24.89
2019-01-18T08:53:13.107Z,24.86
2019-01-18T08:55:39.803Z,25.02
2019-01-18T08:58:06.438Z,24.92
2019-01-18T09:00:33.198Z,24.74
2019-01-18T09:03:08.344Z,24.90
2019-01-18T09:05:35.067Z,24.77
2019-01-18T09:08:02.397Z,24.90
2019-01-18T09:10:29.216Z,24.69
2019-01-18T09:12:55.924Z,24.41
2019-01-18T09:15:22.622Z,24.18
2019-01-18T09:17:49.269Z,24.37
2019-01-18T09:20:15.995Z,24.45
2019-01-18T09:22:42.632Z,24.66
2019-01-18T09:25:09.405Z,24.96
2019-01-18T09:27:36.040Z,25.10
2019-01-18T09:30:02.684Z,24.96
2019-01-18T09:32:29.818Z,24.94
2019-01-18T09:34:56.475Z,24.98
2019-01-18T09:37:23.141Z,25.03
2019-01-18T09:39:49.791Z,24.95
2019-01-18T09:42:16.595Z,25.19
2019-01-18T09:44:43.276Z,24.94
2019-01-18T09:47:09.933Z,24.93
2019-01-18T09:49:36.606Z,24.82
2019-01-18T09:52:03.251Z,24.95
2019-01-18T09:54:29.903Z,24.79
2019-01-18T09:56:56.634Z,24.82
2019-01-18T09:59:23.284Z,24.68
2019-01-18T10:01:51.013Z,24.68
2019-01-18T10:04:17.701Z,24.78
2019-01-18T10:06:44.370Z,24.72
2019-01-18T10:09:13.851Z,24.64
2019-01-18T10:11:40.504Z,24.63
2019-01-18T10:14:07.144Z,24.64
2019-01-18T10:16:33.805Z,24.61
2019-01-18T10:19:00.472Z,24.57
2019-01-18T10:21:27.164Z,24.57
2019-01-18T10:23:53.821Z,24.53
2019-01-18T10:26:20.464Z,24.55
2019-01-18T10:28:47.125Z,24.60
2019-01-18T10:31:13.783Z,24.57
2019-01-18T10:33:40.426Z,24.57
2019-01-18T10:36:07.123Z,24.68
2019-01-18T10:38:33.801Z,24.60
2019-01-18T10:41:00.441Z,24.57
2019-01-18T10:43:27.148Z,24.56
2019-01-18T10:45:53.794Z,24.57
2019-01-18T10:48:20.454Z,24.82
2019-01-18T10:50:47.105Z,24.89
2019-01-18T10:53:13.753Z,24.81
2019-01-18T10:55:40.518Z,24.72
2019-01-18T10:58:10.028Z,24.90
2019-01-18T11:00:36.713Z,24.74
2019-01-18T11:03:03.509Z,25.02
2019-01-18T11:05:30.185Z,24.95
2019-01-18T11:07:56.879Z,25.12
2019-01-18T11:10:24.648Z,24.76
2019-01-18T11:12:51.381Z,24.93
2019-01-18T11:15:18.122Z,24.93
2019-01-18T11:17:44.789Z,24.97
2019-01-18T11:20:11.503Z,24.95
2019-01-18T11:22:43.297Z,24.89
2019-01-18T11:25:14.448Z,24.91
2019-01-18T11:27:39.762Z,24.93
2019-01-18T11:30:06.406Z,25.02
2019-01-18T11:32:33.191Z,25.16
2019-01-18T11:34:59.933Z,25.03
2019-01-18T11:37:28.274Z,25.05
2019-01-18T11:39:53.360Z,24.98
2019-01-18T11:42:19.988Z,24.99
2019-01-18T11:44:46.633Z,24.97
2019-01-18T11:47:13.296Z,25.05
2019-01-18T11:49:39.937Z,25.05
2019-01-18T11:52:06.590Z,25.02
2019-01-18T11:54:36.172Z,25.14
2019-01-18T11:57:01.101Z,25.06
2019-01-18T11:59:27.780Z,25.12
2019-01-18T12:01:54.529Z,25.22
2019-01-18T12:04:21.167Z,25.03
2019-01-18T12:06:47.967Z,25.20
2019-01-18T12:09:14.654Z,25.32
2019-01-18T12:11:41.435Z,25.23
2019-01-18T12:14:08.109Z,25.22
2019-01-18T12:16:34.768Z,25.38
2019-01-18T12:19:01.493Z,25.18
2019-01-18T12:21:28.101Z,25.31
2019-01-18T12:23:54.758Z,25.17
2019-01-18T12:26:21.400Z,25.34
2019-01-18T12:28:48.128Z,25.23
2019-01-18T12:31:14.777Z,25.32
2019-01-18T12:33:41.415Z,25.26
2019-01-18T12:36:08.084Z,25.29
2019-01-18T12:38:34.762Z,25.28
2019-01-18T12:41:01.457Z,25.23
2019-01-18T12:43:28.238Z,25.43
2019-01-18T12:45:54.877Z,25.35
2019-01-18T12:48:21.527Z,25.39
2019-01-18T12:50:48.197Z,25.30
2019-01-18T12:53:17.980Z,25.35
2019-01-18T12:55:44.683Z,25.31
2019-01-18T12:58:11.380Z,25.18
2019-01-18T13:00:38.032Z,25.31
2019-01-18T13:03:04.682Z,25.22
2019-01-18T13:05:31.338Z,25.26
2019-01-18T13:07:57.973Z,25.29
2019-01-18T13:10:24.730Z,25.24
2019-01-18T13:12:51.427Z,25.19
2019-01-18T13:15:18.069Z,25.30
2019-01-18T13:17:44.719Z,25.17
2019-01-18T13:20:11.437Z,25.13
2019-01-18T13:22:38.134Z,25.24
2019-01-18T13:25:04.802Z,25.30
2019-01-18T13:27:31.509Z,25.31
2019-01-18T13:29:58.363Z,25.34
2019-01-18T13:32:25.067Z,25.25
2019-01-18T13:34:52.504Z,25.42
2019-01-18T13:37:19.110Z,25.27
2019-01-18T13:39:45.756Z,25.32
2019-01-18T13:42:12.443Z,25.26
2019-01-18T13:44:43.589Z,25.19
2019-01-18T13:47:05.795Z,25.21
2019-01-18T13:49:32.449Z,25.13
2019-01-18T13:52:02.179Z,25.29
2019-01-18T13:54:28.839Z,25.11
2019-01-18T13:56:55.495Z,25.29
2019-01-18T13:59:22.835Z,25.24
2019-01-18T14:01:49.489Z,25.37
2019-01-18T14:04:16.186Z,25.36
2019-01-18T14:06:42.822Z,25.22
2019-01-18T14:09:09.478Z,25.13
2019-01-18T14:11:36.228Z,25.23
2019-01-18T14:14:02.879Z,25.19
2019-01-18T14:16:29.528Z,25.35
2019-01-18T14:18:56.179Z,25.27
2019-01-18T14:21:22.862Z,25.19
2019-01-18T14:23:49.515Z,25.08
2019-01-18T14:26:16.205Z,25.16
2019-01-18T14:28:43.896Z,25.13
2019-01-18T14:31:10.566Z,25.01
2019-01-18T14:33:37.207Z,25.16
2019-01-18T14:36:03.863Z,25.05
2019-01-18T14:38:30.512Z,25.16
2019-01-18T14:40:57.317Z,25.17
2019-01-18T14:43:23.945Z,25.21
2019-01-18T14:45:50.584Z,25.14
2019-01-18T14:48:17.250Z,25.23
2019-01-18T14:50:43.894Z,25.20
2019-01-18T14:53:10.550Z,25.14
2019-01-18T14:55:37.895Z,25.10
2019-01-18T14:58:04.586Z,25.11
2019-01-18T15:00:31.278Z,25.20
2019-01-18T15:03:02.303Z,25.12
2019-01-18T15:05:24.565Z,25.24
2019-01-18T15:07:51.202Z,25.15
2019-01-18T15:10:17.856Z,25.10
2019-01-18T15:12:44.501Z,25.14
2019-01-18T15:15:11.191Z,25.15
2019-01-18T15:17:37.836Z,25.00
2019-01-18T15:20:04.492Z,25.07
2019-01-18T15:22:31.145Z,24.96
2019-01-18T15:24:57.809Z,24.92
2019-01-18T15:27:24.481Z,24.93
2019-01-18T15:29:51.166Z,24.93
2019-01-18T15:32:17.921Z,24.91
2019-01-18T15:34:44.576Z,24.89
2019-01-18T15:37:11.213Z,24.78
2019-01-18T15:39:37.860Z,24.80
2019-01-18T15:42:04.530Z,24.81
2019-01-18T15:44:31.230Z,24.85
2019-01-18T15:46:59.935Z,24.80
2019-01-18T15:49:24.511Z,24.76
2019-01-18T15:51:51.168Z,24.79
2019-01-18T15:54:17.808Z,24.67
2019-01-18T15:56:44.505Z,24.77
2019-01-18T15:59:11.360Z,24.68
2019-01-18T16:01:38.015Z,24.66
2019-01-18T16:04:04.652Z,24.65
2019-01-18T16:06:31.315Z,24.67
2019-01-18T16:08:57.960Z,24.64
2019-01-18T16:11:27.638Z,24.68
2019-01-18T16:13:54.276Z,24.66
2019-01-18T16:16:20.958Z,24.60
2019-01-18T16:18:47.607Z,24.57
2019-01-18T16:21:14.256Z,24.59
2019-01-18T16:23:43.447Z,24.61
2019-01-18T16:26:10.090Z,24.48
2019-01-18T16:28:36.729Z,24.52
2019-01-18T16:31:03.376Z,24.44
2019-01-18T16:33:30.054Z,24.50
2019-01-18T16:35:56.706Z,24.45
2019-01-18T16:38:23.359Z,24.42
2019-01-18T16:40:50.040Z,24.56
2019-01-18T16:43:16.737Z,24.57
2019-01-18T16:45:43.402Z,24.40
2019-01-18T16:48:10.041Z,24.44
2019-01-18T16:50:36.704Z,24.34
2019-01-18T16:53:03.488Z,24.29
2019-01-18T16:55:30.109Z,24.25
2019-01-18T16:57:56.766Z,24.28
2019-01-18T17:00:23.425Z,24.26
2019-01-18T17:02:50.125Z,24.28
2019-01-18T17:05:16.775Z,24.25
2019-01-18T17:07:43.427Z,24.19
2019-01-18T17:10:10.080Z,24.12
2019-01-18T17:12:36.832Z,24.04
2019-01-18T17:15:03.514Z,23.80
2019-01-18T17:17:30.178Z,23.63
2019-01-18T17:19:56.888Z,23.53
2019-01-18T17:22:23.529Z,23.66
2019-01-18T17:24:50.167Z,23.86
2019-01-18T17:27:16.827Z,23.95
2019-01-18T17:29:43.555Z,24.03
2019-01-18T17:32:10.205Z,24.11
2019-01-18T17:34:36.900Z,24.17
2019-01-18T17:37:03.582Z,24.13
2019-01-18T17:39:30.262Z,24.04
2019-01-18T17:41:56.861Z,24.08
2019-01-18T17:44:23.509Z,23.97
2019-01-18T17:46:50.156Z,23.98
2019-01-18T17:49:16.843Z,23.89
2019-01-18T17:51:43.486Z,23.88
2019-01-18T17:54:10.144Z,23.84
2019-01-18T17:56:36.788Z,23.84
2019-01-18T17:59:03.425Z,23.84
2019-01-18T18:01:30.165Z,23.86
2019-01-18T18:03:56.866Z,23.81
2019-01-18T18:06:23.500Z,23.83
2019-01-18T18:08:50.154Z,23.84
2019-01-18T18:11:16.798Z,23.88
2019-01-18T18:13:43.454Z,23.92
2019-01-18T18:16:10.104Z,23.92
2019-01-18T18:18:36.739Z,23.92
2019-01-18T18:21:03.388Z,23.94
2019-01-18T18:23:30.021Z,23.98
2019-01-18T18:25:56.718Z,23.99
2019-01-18T18:28:23.356Z,24.00
2019-01-18T18:30:49.992Z,23.97
2019-01-18T18:33:16.636Z,24.00
2019-01-18T18:35:43.347Z,23.99
2019-01-18T18:38:09.999Z,23.96
2019-01-18T18:40:36.636Z,24.04
2019-01-18T18:43:03.305Z,24.05
2019-01-18T18:45:29.952Z,24.02
2019-01-18T18:47:56.640Z,24.02
2019-01-18T18:50:23.285Z,24.00
2019-01-18T18:52:49.948Z,24.05
2019-01-18T18:55:16.600Z,23.98
2019-01-18T18:57:43.241Z,24.02
2019-01-18T19:00:09.930Z,23.98
2019-01-18T19:02:36.558Z,23.99
2019-01-18T19:05:03.206Z,24.08
2019-01-18T19:07:29.850Z,23.96
2019-01-18T19:09:56.480Z,23.96
2019-01-18T19:12:23.131Z,23.97
2019-01-18T19:14:49.809Z,24.04
2019-01-18T19:17:16.453Z,23.94
2019-01-18T19:19:43.089Z,23.94
2019-01-18T19:22:09.771Z,23.97
2019-01-18T19:24:36.410Z,23.96
2019-01-18T19:27:03.057Z,23.93
2019-01-18T19:29:29.701Z,23.90
2019-01-18T19:31:57.656Z,23.92
2019-01-18T19:34:23.015Z,23.89
2019-01-18T19:36:49.661Z,23.88
2019-01-18T19:39:16.310Z,23.85
2019-01-18T19:41:42.954Z,23.86
2019-01-18T19:44:09.629Z,23.90
2019-01-18T19:46:36.265Z,23.88
2019-01-18T19:49:02.952Z,23.84
2019-01-18T19:51:29.590Z,23.87
2019-01-18T19:53:56.233Z,23.84
2019-01-18T19:56:22.922Z,23.87
2019-01-18T19:58:49.734Z,23.82
2019-01-18T20:01:16.378Z,23.87
2019-01-18T20:03:44.400Z,23.82
2019-01-18T20:06:09.685Z,23.82
2019-01-18T20:08:36.387Z,23.81
2019-01-18T20:11:03.036Z,23.81
2019-01-18T20:13:29.669Z,23.78
2019-01-18T20:15:56.311Z,23.83
2019-01-18T20:18:22.997Z,23.78
2019-01-18T20:20:49.638Z,23.81
2019-01-18T20:23:16.276Z,23.79
2019-01-18T20:25:42.912Z,23.78
2019-01-18T20:28:09.598Z,23.77
2019-01-18T20:30:36.235Z,23.79
2019-01-18T20:33:02.874Z,23.79
2019-01-18T20:35:29.536Z,23.75
2019-01-18T20:37:56.178Z,23.73
2019-01-18T20:40:22.841Z,23.72
2019-01-18T20:42:49.489Z,23.74
2019-01-18T20:45:16.421Z,23.77
2019-01-18T20:47:43.058Z,23.70
2019-01-18T20:50:09.714Z,23.72
2019-01-18T20:52:36.371Z,23.75
2019-01-18T20:55:03.044Z,23.71
2019-01-18T20:57:29.690Z,23.70
2019-01-18T20:59:56.341Z,23.69
2019-01-18T21:02:22.988Z,23.68
2019-01-18T21:04:49.632Z,23.69
2019-01-18T21:07:16.331Z,23.70
2019-01-18T21:09:42.987Z,23.69
2019-01-18T21:12:09.640Z,23.69
2019-01-18T21:14:36.280Z,23.65
2019-01-18T21:17:02.980Z,23.62
2019-01-18T21:19:29.618Z,23.68
2019-01-18T21:21:56.293Z,23.68
2019-01-18T21:24:22.939Z,23.62
2019-01-18T21:26:49.585Z,23.62
2019-01-18T21:29:16.232Z,23.64
2019-01-18T21:31:42.917Z,23.59
2019-01-18T21:34:09.555Z,23.61
2019-01-18T21:36:36.201Z,23.61
2019-01-18T21:39:02.881Z,23.66
2019-01-18T21:41:29.565Z,23.65
2019-01-18T21:43:56.249Z,23.58
2019-01-18T21:46:22.892Z,23.61
2019-01-18T21:48:49.535Z,23.59
2019-01-18T21:51:16.226Z,23.61
2019-01-18T21:53:42.873Z,23.53
2019-01-18T21:56:09.556Z,23.58
2019-01-18T21:58:36.189Z,23.56
2019-01-18T22:01:02.828Z,23.61
2019-01-18T22:03:29.496Z,23.56
2019-01-18T22:05:56.164Z,23.59
2019-01-18T22:08:22.804Z,23.52
2019-01-18T22:10:49.460Z,23.58
2019-01-18T22:13:16.095Z,23.56
2019-01-18T22:15:42.742Z,23.60
2019-01-18T22:18:09.381Z,23.58
2019-01-18T22:20:36.072Z,23.53
2019-01-18T22:23:02.716Z,23.53
2019-01-18T22:25:29.360Z,23.51
2019-01-18T22:27:56.015Z,23.53
2019-01-18T22:30:22.653Z,23.49
2019-01-18T22:32:49.305Z,23.50
2019-01-18T22:35:15.941Z,23.51
2019-01-18T22:37:42.627Z,23.51
2019-01-18T22:40:09.271Z,23.48
2019-01-18T22:42:35.908Z,23.44
2019-01-18T22:45:02.557Z,23.46
2019-01-18T22:47:29.192Z,23.50
2019-01-18T22:49:55.849Z,23.45
2019-01-18T22:52:22.488Z,23.45
2019-01-18T22:54:49.140Z,23.42
2019-01-18T22:57:15.780Z,23.46
2019-01-18T22:59:42.459Z,23.51
2019-01-18T23:02:09.109Z,23.46
2019-01-18T23:04:35.767Z,23.45
2019-01-18T23:07:02.454Z,23.45
2019-01-18T23:09:29.099Z,23.50
2019-01-18T23:11:55.731Z,23.44
2019-01-18T23:14:25.201Z,23.44
2019-01-18T23:16:51.852Z,23.46
2019-01-18T23:19:18.489Z,23.47
2019-01-18T23:21:46.977Z,23.41
2019-01-18T23:24:11.830Z,23.44
2019-01-18T23:26:38.460Z,23.38
2019-01-18T23:29:05.130Z,23.39
2019-01-18T23:31:31.825Z,23.40
2019-01-18T23:33:58.431Z,23.40
2019-01-18T23:36:25.070Z,23.42
2019-01-18T23:38:51.772Z,23.38
2019-01-18T23:41:18.421Z,23.40
2019-01-18T23:43:45.122Z,23.39
2019-01-18T23:46:11.804Z,23.35
2019-01-18T23:48:38.448Z,23.40
2019-01-18T23:51:05.086Z,23.36
2019-01-18T23:53:31.728Z,23.36
2019-01-18T23:55:58.368Z,23.36
2019-01-18T23:58:25.015Z,23.37
